VYMD/MDL METAR and TAF weather

Enter ICAO airport designator
Station Type Date Time Source
VYMD METAR 2021/06/22 22:30 UTC NOAA

VYMD 222230Z 16007G15KT 7000 SCT025 SCT120 27/23 Q1005 NOSIG


Station Type Date Time Source
VYMD Decoded METAR 2021/06/22 22:30 UTC NOAA

Station name not available
Jun 22, 2021 - 06:30 PM EDT / 2021.06.22 2230 UTC
Wind: from the SSE (160 degrees) at 8 MPH (7 KT) gusting to 17 MPH (15 KT):0
Visibility: 4 mile(s):0
Sky conditions: partly cloudy
Temperature: 80 F (27 C)
Dew Point: 73 F (23 C)
Relative Humidity: 78%
Pressure (altimeter): 29.68 in. Hg (1005 hPa)
ob: VYMD 222230Z 16007G15KT 7000 SCT025 SCT120 27/23 Q1005 NOSIG
cycle: 22

Station Type Date Time Source
VYMD TAF 2021/06/22 18:00 UTC NOAA

TAF VYMD 221700Z 2218/2318 18008KT 7000 SCT020 SCT120
TEMPO 2218/2224 18008G18KT 6000 BKN020 FEW025CB

Example: see airport list